createdAt,value
2019-05-11T00:00:49.301Z,75.5
2019-05-11T00:02:01.000Z,75.3
2019-05-11T00:03:12.000Z,75.2
2019-05-11T00:04:24.000Z,74.8
2019-05-11T00:05:37.000Z,75
2019-05-11T00:06:49.000Z,75.7
2019-05-11T00:09:13.000Z,76.1
2019-05-11T00:10:25.000Z,75.9
2019-05-11T00:11:38.000Z,76
2019-05-11T00:12:51.000Z,75.9
2019-05-11T00:14:02.000Z,75.3
2019-05-11T00:15:15.709Z,76.6
2019-05-11T00:16:27.920Z,76.9
2019-05-11T00:17:39.000Z,76.5
2019-05-11T00:18:57.000Z,76.6
2019-05-11T00:20:03.000Z,77.2
2019-05-11T00:21:15.000Z,77.4
2019-05-11T00:22:27.000Z,77.5
2019-05-11T00:23:40.000Z,77.5
2019-05-11T00:24:52.000Z,76.8
2019-05-11T00:26:04.000Z,78.1
2019-05-11T00:27:17.715Z,77.9
2019-05-11T00:28:28.000Z,76.8
2019-05-11T00:29:41.000Z,76.9
2019-05-11T00:30:53.000Z,75.7
2019-05-11T00:32:05.000Z,77.4
2019-05-11T00:33:17.000Z,77.8
2019-05-11T00:34:29.000Z,77.6
2019-05-11T00:35:42.000Z,77.4
2019-05-11T00:36:54.000Z,76.2
2019-05-11T00:38:06.000Z,75.6
2019-05-11T00:39:18.000Z,77.3
2019-05-11T00:40:31.000Z,78.2
2019-05-11T00:41:43.000Z,79.4
2019-05-11T00:42:55.000Z,79.3
2019-05-11T00:44:07.000Z,78.9
2019-05-11T00:45:20.000Z,79.4
2019-05-11T00:46:31.000Z,80
2019-05-11T00:47:44.000Z,80.1
2019-05-11T00:48:56.000Z,80.3
2019-05-11T00:51:20.000Z,78.3
2019-05-11T00:52:32.000Z,78.6
2019-05-11T00:53:45.000Z,77.4
2019-05-11T00:54:57.000Z,78.8
2019-05-11T00:56:09.000Z,77.8
2019-05-11T00:57:21.000Z,80.5
2019-05-11T00:58:33.000Z,80.4
2019-05-11T00:59:46.000Z,81.4
2019-05-11T01:00:59.361Z,82
2019-05-11T01:02:10.000Z,82
2019-05-11T01:03:22.000Z,81.2
2019-05-11T01:04:35.984Z,81.6
2019-05-11T01:05:48.018Z,81.4
2019-05-11T01:07:00.387Z,81.8
2019-05-11T01:08:12.582Z,81
2019-05-11T01:09:24.867Z,80.3
2019-05-11T01:10:37.019Z,81.3
2019-05-11T01:15:25.801Z,80.9
2019-05-11T01:17:50.202Z,80.9
2019-05-11T01:20:14.614Z,81.4
2019-05-11T01:22:39.024Z,80.6
2019-05-11T01:25:03.430Z,81.4
2019-05-11T01:26:15.638Z,81.5
2019-05-11T01:28:40.000Z,81.2
2019-05-11T01:33:28.927Z,81
2019-05-11T01:38:17.697Z,80.6
2019-05-11T01:41:54.326Z,80
2019-05-11T01:43:05.000Z,81.2
2019-05-11T01:44:17.000Z,81.1
2019-05-11T01:45:30.000Z,81.3
2019-05-11T01:46:42.000Z,81
2019-05-11T01:47:55.366Z,78.8
2019-05-11T01:49:06.000Z,78
2019-05-11T01:50:18.000Z,77.6
2019-05-11T01:51:30.000Z,78.8
2019-05-11T01:52:44.183Z,79.6
2019-05-11T01:53:55.000Z,82.6
2019-05-11T01:55:07.000Z,83.8
2019-05-11T01:56:19.000Z,85.3
2019-05-11T01:57:33.026Z,86.4
2019-05-11T01:58:44.000Z,87.1
2019-05-11T01:59:56.000Z,86.2
2019-05-11T02:01:08.000Z,86.6
2019-05-11T02:02:20.000Z,86.3
2019-05-11T02:03:33.000Z,85.7
2019-05-11T02:04:46.246Z,85.4
2019-05-11T02:05:57.000Z,84.7
2019-05-11T02:07:09.000Z,85.2
2019-05-11T02:08:21.000Z,83.2
2019-05-11T02:09:34.000Z,84.5
2019-05-11T02:10:46.000Z,83.2
2019-05-11T02:11:59.000Z,85.3
2019-05-11T02:13:16.000Z,84.5
2019-05-11T02:15:35.000Z,85
2019-05-11T02:16:47.000Z,85.2
2019-05-11T02:17:59.000Z,85.2
2019-05-11T02:19:11.000Z,83
2019-05-11T02:20:23.000Z,84.7
2019-05-11T02:21:36.000Z,84.5
2019-05-11T02:22:48.000Z,85.4
2019-05-11T02:24:00.000Z,85.6
2019-05-11T02:25:12.000Z,86.4
2019-05-11T02:26:24.000Z,86
2019-05-11T02:27:37.000Z,85.5
2019-05-11T02:28:49.000Z,84.3
2019-05-11T02:30:02.000Z,85.9
2019-05-11T02:31:13.000Z,85
2019-05-11T02:32:25.000Z,85.5
2019-05-11T02:33:38.000Z,84.1
2019-05-11T02:34:50.000Z,84.2
2019-05-11T02:36:02.000Z,84.8
2019-05-11T02:37:14.000Z,85.3
2019-05-11T02:38:26.000Z,85.5
2019-05-11T02:39:39.000Z,83.8
2019-05-11T02:40:51.000Z,85.3
2019-05-11T02:42:04.059Z,84.5
2019-05-11T02:43:15.000Z,85.4
2019-05-11T02:44:27.000Z,85
2019-05-11T02:45:40.000Z,84.8
2019-05-11T02:46:52.000Z,84.1
2019-05-11T02:48:05.000Z,84.2
2019-05-11T02:49:17.826Z,83.9
2019-05-11T02:50:28.000Z,84
2019-05-11T02:51:41.000Z,84
2019-05-11T02:52:53.000Z,83.4
2019-05-11T02:54:06.622Z,84
2019-05-11T02:55:18.820Z,84.2
2019-05-11T02:56:29.000Z,84
2019-05-11T02:57:43.222Z,84.2
2019-05-11T02:58:54.000Z,83.9
2019-05-11T03:00:06.000Z,84.1
2019-05-11T03:01:18.000Z,84.4
2019-05-11T03:02:31.000Z,84.5
2019-05-11T03:03:43.000Z,84.6
2019-05-11T03:04:55.000Z,85
2019-05-11T03:06:07.000Z,84
2019-05-11T03:07:19.000Z,84.4
2019-05-11T03:08:32.000Z,84.6
2019-05-11T03:09:44.000Z,83.8
2019-05-11T03:10:57.000Z,83.3
2019-05-11T03:13:20.000Z,84
2019-05-11T03:14:33.000Z,84.1
2019-05-11T03:15:45.000Z,83.8
2019-05-11T03:16:57.000Z,84.5
2019-05-11T03:18:09.000Z,84.7
2019-05-11T03:19:21.000Z,84.6
2019-05-11T03:20:34.000Z,84.2
2019-05-11T03:21:46.000Z,84.3
2019-05-11T03:22:58.000Z,84.5
2019-05-11T03:24:10.000Z,84.2
2019-05-11T03:25:22.000Z,84.8
2019-05-11T03:26:35.000Z,84.6
2019-05-11T03:27:47.000Z,84
2019-05-11T03:28:59.000Z,84.4
2019-05-11T03:30:11.000Z,84.4
2019-05-11T03:31:23.000Z,84
2019-05-11T03:32:42.000Z,84.1
2019-05-11T03:33:48.000Z,84.1
2019-05-11T03:35:00.000Z,83.6
2019-05-11T03:36:12.000Z,84.1
2019-05-11T03:37:24.000Z,84.5
2019-05-11T03:38:37.000Z,83.1
2019-05-11T03:39:50.460Z,83.9
2019-05-11T03:41:01.000Z,82.5
2019-05-11T03:42:14.000Z,84.1
2019-05-11T03:43:25.000Z,84.6
2019-05-11T03:44:38.000Z,84.5
2019-05-11T03:45:50.000Z,84.2
2019-05-11T03:47:06.000Z,84.5
2019-05-11T03:48:14.000Z,84.6
2019-05-11T03:49:27.000Z,83.4
2019-05-11T03:50:39.000Z,83.4
2019-05-11T03:51:51.000Z,84.2
2019-05-11T03:53:03.000Z,84.4
2019-05-11T03:54:15.000Z,83.8
2019-05-11T03:55:28.000Z,83.6
2019-05-11T03:56:40.000Z,83
2019-05-11T03:57:52.000Z,83.4
2019-05-11T03:59:04.000Z,83.7
2019-05-11T04:00:16.000Z,83.6
2019-05-11T04:01:29.000Z,83.6
2019-05-11T04:02:41.000Z,82.9
2019-05-11T04:03:53.000Z,83
2019-05-11T04:05:05.000Z,82.6
2019-05-11T04:06:17.000Z,82.7
2019-05-11T04:07:30.000Z,82.3
2019-05-11T04:08:43.301Z,82.1
2019-05-11T04:09:54.000Z,81.5
2019-05-11T04:11:06.000Z,81.2
2019-05-11T04:12:18.000Z,81.1
2019-05-11T04:13:31.000Z,80.8
2019-05-11T04:14:43.000Z,80.5
2019-05-11T04:15:56.000Z,80
2019-05-11T04:17:07.000Z,80.2
2019-05-11T04:18:19.000Z,79.9
2019-05-11T04:19:33.000Z,80
2019-05-11T04:20:44.000Z,79.8
2019-05-11T04:21:56.000Z,79.7
2019-05-11T04:23:09.000Z,79.3
2019-05-11T04:24:20.000Z,79.4
2019-05-11T04:25:36.000Z,79.2
2019-05-11T04:26:46.000Z,78.9
2019-05-11T04:28:01.000Z,78.4
2019-05-11T04:29:21.000Z,78.7
2019-05-11T04:30:21.000Z,78
2019-05-11T04:31:35.000Z,78
2019-05-11T04:32:46.000Z,77.2
2019-05-11T04:33:59.051Z,77.1
2019-05-11T04:35:11.000Z,76.8
2019-05-11T04:36:22.000Z,78.3
2019-05-11T04:37:35.000Z,76.7
2019-05-11T04:38:47.000Z,76.1
2019-05-11T04:40:00.000Z,76.2
2019-05-11T04:41:11.000Z,76.4
2019-05-11T04:42:23.000Z,76.5
2019-05-11T04:43:37.274Z,76.5
2019-05-11T04:44:49.028Z,76.2
2019-05-11T04:46:00.000Z,75.7
2019-05-11T04:47:13.684Z,75.5
2019-05-11T04:48:25.000Z,75.8
2019-05-11T04:49:37.000Z,76
2019-05-11T04:50:50.000Z,75.8
2019-05-11T04:52:02.000Z,75.7
2019-05-11T04:53:13.000Z,75.2
2019-05-11T04:54:29.000Z,74.8
2019-05-11T04:55:38.000Z,74.4
2019-05-11T04:56:50.000Z,74.5
2019-05-11T04:58:03.000Z,74.6
2019-05-11T04:59:14.000Z,74.6
2019-05-11T05:01:39.000Z,74.6
2019-05-11T05:02:51.000Z,74.8
2019-05-11T05:04:03.000Z,74.4
2019-05-11T05:05:15.000Z,74.6
2019-05-11T05:06:27.000Z,74.1
2019-05-11T05:07:40.000Z,73.1
2019-05-11T05:08:52.000Z,72.9
2019-05-11T05:10:04.000Z,73.3
2019-05-11T05:11:16.000Z,73.1
2019-05-11T05:12:29.948Z,73
2019-05-11T05:13:41.000Z,72.8
2019-05-11T05:14:53.000Z,73.6
2019-05-11T05:16:06.000Z,72.7
2019-05-11T05:17:18.000Z,72.1
2019-05-11T05:18:29.000Z,72.5
2019-05-11T05:19:42.000Z,72.3
2019-05-11T05:20:54.000Z,73.9
2019-05-11T05:22:06.000Z,72.1
2019-05-11T05:23:18.000Z,72.1
2019-05-11T05:24:31.981Z,71.3
2019-05-11T05:25:43.000Z,72.7
2019-05-11T05:26:56.389Z,71.6
2019-05-11T05:28:07.000Z,70.6
2019-05-11T05:29:20.000Z,70.6
2019-05-11T05:30:31.000Z,71.1
2019-05-11T05:31:45.187Z,70.6
2019-05-11T05:32:56.000Z,70.5
2019-05-11T05:34:08.000Z,70.7
2019-05-11T05:35:20.000Z,70.5
2019-05-11T05:36:32.000Z,70.3
2019-05-11T05:37:45.000Z,70
2019-05-11T05:40:09.000Z,70.3
2019-05-11T05:41:22.000Z,70.5
2019-05-11T05:42:34.979Z,70
2019-05-11T05:43:46.000Z,70.1
2019-05-11T05:44:58.000Z,70.1
2019-05-11T05:46:10.000Z,69.6
2019-05-11T05:47:22.000Z,69.5
2019-05-11T05:48:34.000Z,69.8
2019-05-11T05:49:47.000Z,69.1
2019-05-11T05:51:00.392Z,69.3
2019-05-11T05:52:11.000Z,70
2019-05-11T05:53:23.000Z,69.7
2019-05-11T05:54:35.000Z,69.3
2019-05-11T05:55:49.185Z,68.6
2019-05-11T05:57:00.000Z,68.6
2019-05-11T05:58:13.000Z,68.7
2019-05-11T05:59:24.000Z,68.8
2019-05-11T06:00:36.000Z,68.1
2019-05-11T06:01:50.000Z,68.2
2019-05-11T06:03:01.000Z,68.2
2019-05-11T06:04:14.063Z,67.6
2019-05-11T06:05:25.000Z,67.2
2019-05-11T06:06:38.000Z,67.1
2019-05-11T06:07:50.000Z,67.1
2019-05-11T06:09:03.457Z,66.8
2019-05-11T06:10:14.000Z,67
2019-05-11T06:11:32.000Z,66.7
2019-05-11T06:12:39.000Z,66.3
2019-05-11T06:13:51.000Z,66
2019-05-11T06:15:03.000Z,65.4
2019-05-11T06:16:16.000Z,64.9
2019-05-11T06:17:28.000Z,64.4
2019-05-11T06:18:40.000Z,63.6
2019-05-11T06:19:53.000Z,63.9
2019-05-11T06:21:04.000Z,63.5
2019-05-11T06:22:16.000Z,64.2
2019-05-11T06:23:28.000Z,64.7
2019-05-11T06:24:42.034Z,64.7
2019-05-11T06:27:06.000Z,64.7
2019-05-11T06:28:17.000Z,63.1
2019-05-11T06:29:30.849Z,62.9
2019-05-11T06:30:42.000Z,63.2
2019-05-11T06:31:55.263Z,62.4
2019-05-11T06:33:06.000Z,62.1
2019-05-11T06:34:18.000Z,61.6
2019-05-11T06:35:30.000Z,61.7
2019-05-11T06:36:44.080Z,61.4
2019-05-11T06:37:55.000Z,61.2
2019-05-11T06:39:07.000Z,61
2019-05-11T06:40:19.000Z,60.8
2019-05-11T06:41:31.000Z,60.3
2019-05-11T06:42:44.000Z,59.8
2019-05-11T06:43:56.000Z,59.6
2019-05-11T06:45:18.000Z,59.9
2019-05-11T06:46:21.763Z,59.6
2019-05-11T06:47:33.960Z,60.1
2019-05-11T06:48:46.000Z,59.7
2019-05-11T06:49:57.000Z,59.6
2019-05-11T06:51:09.000Z,59.8
2019-05-11T06:52:21.000Z,59.8
2019-05-11T06:53:33.000Z,59.6
2019-05-11T06:55:58.000Z,59.5
2019-05-11T06:57:10.000Z,59.1
2019-05-11T06:58:22.000Z,59.1
2019-05-11T06:59:36.057Z,58.7
2019-05-11T07:00:48.268Z,58.5
2019-05-11T07:01:59.000Z,58.5
2019-05-11T07:03:11.000Z,58
2019-05-11T07:04:27.000Z,58.3
2019-05-11T07:06:49.000Z,57.9
2019-05-11T07:08:01.000Z,57.3
2019-05-11T07:09:13.726Z,57.4
2019-05-11T07:10:24.000Z,57.3
2019-05-11T07:11:37.000Z,57
2019-05-11T07:12:50.031Z,56.7
2019-05-11T07:14:02.515Z,56.8
2019-05-11T07:15:14.725Z,57.2
2019-05-11T07:16:25.000Z,56.4
2019-05-11T07:17:38.000Z,56.8
2019-05-11T07:18:51.000Z,56.3
2019-05-11T07:20:03.000Z,56.4
2019-05-11T07:21:14.000Z,56.5
2019-05-11T07:22:26.000Z,56.6
2019-05-11T07:23:40.180Z,56
2019-05-11T07:24:52.380Z,55.7
2019-05-11T07:26:03.000Z,55.5
2019-05-11T07:27:16.793Z,55.1
2019-05-11T07:28:27.000Z,54.9
2019-05-11T07:29:40.000Z,54.6
2019-05-11T07:30:53.000Z,54.2
2019-05-11T07:34:28.000Z,54.3
2019-05-11T07:35:41.000Z,54
2019-05-11T07:36:53.000Z,53.7
2019-05-11T07:38:05.000Z,53.7
2019-05-11T07:39:17.000Z,53.4
2019-05-11T07:41:42.000Z,52.9
2019-05-11T07:42:54.000Z,52.6
2019-05-11T07:44:06.000Z,52.5
2019-05-11T07:45:19.000Z,51.6
2019-05-11T07:47:43.000Z,51
2019-05-11T07:48:55.000Z,50.4
2019-05-11T07:50:08.606Z,49.7
2019-05-11T07:51:19.000Z,49.2
2019-05-11T07:52:33.212Z,48.7
2019-05-11T07:53:44.000Z,48
2019-05-11T07:54:56.000Z,47.9
2019-05-11T07:56:09.000Z,48
2019-05-11T07:57:21.000Z,47.8
2019-05-11T07:58:33.980Z,47.5
2019-05-11T07:59:46.000Z,48
2019-05-11T08:00:57.000Z,47.9
2019-05-11T08:02:09.000Z,47.3
2019-05-11T08:03:21.000Z,46.3
2019-05-11T08:04:33.000Z,46.3
2019-05-11T08:06:59.035Z,46
2019-05-11T08:08:11.554Z,45.9
2019-05-11T08:09:23.750Z,45.5
2019-05-11T08:10:34.000Z,46.4
2019-05-11T08:11:47.000Z,46.7
2019-05-11T08:13:00.335Z,46.9
2019-05-11T08:15:23.000Z,47.5
2019-05-11T08:16:36.000Z,46.1
2019-05-11T08:17:48.000Z,45.4
2019-05-11T08:19:01.000Z,44
2019-05-11T08:20:12.000Z,44.2
2019-05-11T08:21:24.000Z,43.6
2019-05-11T08:22:36.000Z,44
2019-05-11T08:23:49.000Z,43.9
2019-05-11T08:25:01.000Z,43.2
2019-05-11T08:27:25.000Z,42.5
2019-05-11T08:28:37.000Z,42.8
2019-05-11T08:29:50.000Z,43.7
2019-05-11T08:31:03.235Z,43.8
2019-05-11T08:32:14.000Z,43.4
2019-05-11T08:33:29.000Z,43.6
2019-05-11T08:35:51.000Z,44.4
2019-05-11T08:37:03.000Z,43.9
2019-05-11T08:38:15.000Z,41.9
2019-05-11T08:40:39.000Z,42
2019-05-11T08:41:52.000Z,42
2019-05-11T08:44:16.000Z,41.5
2019-05-11T08:45:29.627Z,41.5
2019-05-11T08:46:40.000Z,42.8
2019-05-11T08:47:53.000Z,41.5
2019-05-11T08:49:05.000Z,42.4
2019-05-11T08:50:18.446Z,42.3
2019-05-11T08:51:29.000Z,42.4
2019-05-11T08:52:41.000Z,41.1
2019-05-11T08:53:54.000Z,40.3
2019-05-11T08:56:19.000Z,39.5
2019-05-11T08:57:30.000Z,39.2
2019-05-11T08:59:55.000Z,40.2
2019-05-11T09:01:08.025Z,39.5
2019-05-11T09:02:19.000Z,39.8
2019-05-11T09:03:32.651Z,40.3
2019-05-11T09:05:56.000Z,39.4
2019-05-11T09:07:08.000Z,38.7
2019-05-11T09:08:20.000Z,39.3
2019-05-11T09:09:32.000Z,39.6
2019-05-11T09:10:45.886Z,40
2019-05-11T09:11:58.083Z,39.6
2019-05-11T09:13:10.000Z,39.5
2019-05-11T09:14:22.494Z,39.9
2019-05-11T09:15:34.000Z,40
2019-05-11T09:16:45.000Z,40.6
2019-05-11T09:17:58.000Z,41.1
2019-05-11T09:19:11.304Z,41.4
2019-05-11T09:20:22.000Z,41.4
2019-05-11T09:21:34.000Z,41.7
2019-05-11T09:22:47.000Z,42.1
2019-05-11T09:24:00.125Z,42.2
2019-05-11T09:25:11.000Z,42.3
2019-05-11T09:26:23.000Z,42.5
2019-05-11T09:28:47.000Z,42.4
2019-05-11T09:30:00.000Z,41.5
2019-05-11T09:32:24.000Z,41.3
2019-05-11T09:33:36.000Z,40.7
2019-05-11T09:34:49.000Z,41.2
2019-05-11T09:37:13.000Z,40.4
2019-05-11T09:38:26.000Z,40.8
2019-05-11T09:39:38.802Z,40.9
2019-05-11T09:40:49.000Z,41.6
2019-05-11T09:42:02.000Z,41.1
2019-05-11T09:43:14.000Z,41.6
2019-05-11T09:44:26.000Z,41.6
2019-05-11T09:45:38.000Z,41.7
2019-05-11T09:46:50.000Z,41
2019-05-11T09:48:03.000Z,40.5
2019-05-11T09:49:15.000Z,40.8
2019-05-11T09:50:28.599Z,41.3
2019-05-11T09:51:39.000Z,40.9
2019-05-11T09:52:51.000Z,40.8
2019-05-11T09:54:05.171Z,40.4
2019-05-11T09:55:17.000Z,40.4
2019-05-11T09:56:28.000Z,39.5
2019-05-11T09:57:40.000Z,39.5
2019-05-11T09:58:52.000Z,39.1
2019-05-11T10:00:06.163Z,39.4
2019-05-11T10:01:18.362Z,40.3
2019-05-11T10:02:29.000Z,40.6
2019-05-11T10:03:41.000Z,40.4
2019-05-11T10:04:54.000Z,40.7
2019-05-11T10:06:07.162Z,40.3
2019-05-11T10:07:18.000Z,40.1
2019-05-11T10:08:30.000Z,40.5
2019-05-11T10:09:42.000Z,39.9
2019-05-11T10:12:07.000Z,40.5
2019-05-11T10:13:20.398Z,40
2019-05-11T10:14:31.000Z,40.5
2019-05-11T10:16:55.000Z,40.5
2019-05-11T10:18:08.000Z,40
2019-05-11T10:19:20.000Z,40.1
2019-05-11T10:20:32.000Z,40.6
2019-05-11T10:21:44.000Z,40.7
2019-05-11T10:22:56.000Z,40.8
2019-05-11T10:24:10.000Z,40.6
2019-05-11T10:26:34.589Z,40.1
2019-05-11T10:27:46.787Z,40.6
2019-05-11T10:28:57.000Z,40.6
2019-05-11T10:30:11.161Z,40.6
2019-05-11T10:32:34.000Z,41
2019-05-11T10:33:47.000Z,40.6
2019-05-11T10:34:59.917Z,40.7
2019-05-11T10:36:11.000Z,41
2019-05-11T10:37:23.000Z,41.5
2019-05-11T10:39:47.000Z,41
2019-05-11T10:41:00.913Z,40.6
2019-05-11T10:43:25.000Z,40.8
2019-05-11T10:44:36.000Z,41.3
2019-05-11T10:45:48.000Z,41.4
2019-05-11T10:47:00.000Z,41.2
2019-05-11T10:48:13.000Z,40.2
2019-05-11T10:49:25.000Z,40.5
2019-05-11T10:50:38.522Z,40
2019-05-11T10:51:49.000Z,41.2
2019-05-11T10:53:01.000Z,40.7
2019-05-11T10:54:15.000Z,41
2019-05-11T10:55:26.000Z,40.8
2019-05-11T10:56:39.530Z,41.4
2019-05-11T10:57:50.000Z,41.2
2019-05-11T10:59:02.000Z,41.5
2019-05-11T11:00:15.000Z,41
2019-05-11T11:01:27.000Z,41.1
2019-05-11T11:02:39.000Z,41.2
2019-05-11T11:03:52.000Z,40.6
2019-05-11T11:05:03.000Z,40.7
2019-05-11T11:06:16.000Z,41.1
2019-05-11T11:07:28.000Z,40.9
2019-05-11T11:08:40.000Z,40.8
2019-05-11T11:09:54.039Z,41
2019-05-11T11:11:05.967Z,40.9
2019-05-11T11:12:18.000Z,40.9
2019-05-11T11:13:30.378Z,41.5
2019-05-11T11:14:42.000Z,40.5
2019-05-11T11:15:54.000Z,41
2019-05-11T11:17:05.000Z,41.2
2019-05-11T11:18:18.000Z,41.4
2019-05-11T11:19:30.000Z,41.5
2019-05-11T11:20:42.000Z,40.7
2019-05-11T11:21:54.000Z,40.6
2019-05-11T11:23:06.000Z,40.7
2019-05-11T11:24:19.000Z,41.1
2019-05-11T11:26:44.573Z,41.7
2019-05-11T11:27:55.000Z,41.2
2019-05-11T11:29:08.000Z,41.6
2019-05-11T11:30:20.000Z,43.3
2019-05-11T11:31:32.000Z,45.4
2019-05-11T11:32:45.572Z,43.8
2019-05-11T11:33:57.775Z,43.4
2019-05-11T11:36:21.000Z,43.9
2019-05-11T11:37:33.000Z,43.1
2019-05-11T11:38:46.000Z,42.9
2019-05-11T11:39:58.000Z,42.8
2019-05-11T11:41:10.000Z,43.1
2019-05-11T11:42:22.000Z,43.4
2019-05-11T11:43:35.358Z,43.1
2019-05-11T11:44:47.000Z,43.8
2019-05-11T11:45:59.000Z,43.1
2019-05-11T11:47:10.000Z,43.7
2019-05-11T11:48:24.176Z,44.4
2019-05-11T11:49:36.000Z,43.7
2019-05-11T11:50:47.000Z,45
2019-05-11T11:51:59.000Z,44.7
2019-05-11T11:53:17.000Z,44.5
2019-05-11T11:54:24.000Z,44.8
2019-05-11T11:55:37.042Z,44.6
2019-05-11T11:56:48.000Z,44.3
2019-05-11T11:58:00.000Z,44
2019-05-11T11:59:14.035Z,44
2019-05-11T12:00:26.232Z,43.4
2019-05-11T12:01:38.447Z,43.2
2019-05-11T12:02:49.000Z,43.6
2019-05-11T12:04:02.856Z,43.5
2019-05-11T12:05:15.064Z,42.9
2019-05-11T12:06:26.000Z,42.7
2019-05-11T12:07:38.000Z,43.4
2019-05-11T12:08:51.000Z,43.7
2019-05-11T12:10:02.000Z,44
2019-05-11T12:11:15.000Z,46.7
2019-05-11T12:12:27.000Z,46.9
2019-05-11T12:13:39.000Z,50.5
2019-05-11T12:14:51.000Z,53
2019-05-11T12:16:04.000Z,48.9
2019-05-11T12:17:16.000Z,50
2019-05-11T12:18:28.000Z,49.8
2019-05-11T12:19:41.000Z,53.3
2019-05-11T12:20:52.000Z,52.2
2019-05-11T12:22:05.970Z,51.7
2019-05-11T12:23:17.000Z,50.2
2019-05-11T12:24:29.000Z,54.4
2019-05-11T12:25:41.000Z,55
2019-05-11T12:26:54.807Z,55.5
2019-05-11T12:28:07.012Z,57.4
2019-05-11T12:29:19.000Z,57.7
2019-05-11T12:30:31.000Z,62.6
2019-05-11T12:31:42.000Z,58.5
2019-05-11T12:32:55.846Z,58.5
2019-05-11T12:34:07.000Z,57.8
2019-05-11T12:35:19.000Z,58.7
2019-05-11T12:36:32.000Z,58.6
2019-05-11T12:37:43.000Z,58
2019-05-11T12:38:56.000Z,59
2019-05-11T12:40:08.000Z,58.2
2019-05-11T12:41:20.000Z,59.4
2019-05-11T12:42:33.000Z,59
2019-05-11T12:43:44.000Z,61.1
2019-05-11T12:44:57.936Z,64
2019-05-11T12:46:09.000Z,63.3
2019-05-11T12:47:22.000Z,62.7
2019-05-11T12:48:33.000Z,60.3
2019-05-11T12:49:45.000Z,62.1
2019-05-11T12:50:57.000Z,61.2
2019-05-11T12:52:10.000Z,59.9
2019-05-11T12:53:22.000Z,61.8
2019-05-11T12:54:34.000Z,60.8
2019-05-11T12:55:46.000Z,61.9
2019-05-11T12:56:59.000Z,58.5
2019-05-11T12:58:12.000Z,61.4
2019-05-11T12:59:24.000Z,58.2
2019-05-11T13:00:36.000Z,61.9
2019-05-11T13:01:55.000Z,62.2
2019-05-11T13:03:02.000Z,62.2
2019-05-11T13:04:12.000Z,61.8
2019-05-11T13:05:24.000Z,61.6
2019-05-11T13:06:36.000Z,59
2019-05-11T13:07:49.937Z,60.8
2019-05-11T13:09:01.000Z,61.1
2019-05-11T13:10:13.000Z,62.3
2019-05-11T13:12:38.775Z,64.5
2019-05-11T13:13:50.000Z,61.4
2019-05-11T13:15:02.000Z,63
2019-05-11T13:16:15.000Z,59.6
2019-05-11T13:17:27.614Z,61.8
2019-05-11T13:18:38.000Z,62.1
2019-05-11T13:19:52.003Z,60.1
2019-05-11T13:21:03.000Z,60.5
2019-05-11T13:22:15.000Z,63
2019-05-11T13:23:27.000Z,62
2019-05-11T13:24:40.000Z,61.6
2019-05-11T13:25:52.000Z,62.9
2019-05-11T13:27:04.000Z,60.1
2019-05-11T13:28:17.000Z,60.8
2019-05-11T13:29:29.000Z,61.9
2019-05-11T13:30:41.000Z,62
2019-05-11T13:31:53.000Z,62.2
2019-05-11T13:33:06.000Z,59.9
2019-05-11T13:34:17.000Z,63.5
2019-05-11T13:35:29.000Z,63.7
2019-05-11T13:36:41.000Z,61.8
2019-05-11T13:37:54.000Z,62.3
2019-05-11T13:39:07.424Z,60
2019-05-11T13:40:19.000Z,63.1
2019-05-11T13:41:30.000Z,62.2
2019-05-11T13:42:43.000Z,61.5
2019-05-11T13:43:55.000Z,59.9
2019-05-11T13:45:07.000Z,60.6
2019-05-11T13:46:19.000Z,63
2019-05-11T13:47:32.000Z,60.9
2019-05-11T13:48:45.107Z,61.2
2019-05-11T13:49:56.000Z,61.8
2019-05-11T13:51:08.000Z,59.4
2019-05-11T13:52:21.738Z,62.4
2019-05-11T13:53:32.000Z,63.2
2019-05-11T13:54:45.000Z,62.7
2019-05-11T13:55:58.000Z,60.7
2019-05-11T13:57:09.000Z,65.8
2019-05-11T13:58:22.823Z,63.2
2019-05-11T13:59:34.993Z,62.3
2019-05-11T14:00:46.000Z,64.5
2019-05-11T14:01:59.000Z,63.6
2019-05-11T14:03:11.000Z,62.4
2019-05-11T14:04:23.000Z,62.9
2019-05-11T14:05:35.000Z,63.4
2019-05-11T14:06:47.000Z,68.5
2019-05-11T14:08:00.000Z,66.6
2019-05-11T14:09:11.000Z,63.7
2019-05-11T14:10:23.000Z,64.8
2019-05-11T14:11:37.164Z,63.7
2019-05-11T14:12:48.000Z,66.5
2019-05-11T14:14:01.000Z,63.3
2019-05-11T14:15:13.000Z,63.4
2019-05-11T14:16:25.949Z,63.2
2019-05-11T14:17:44.000Z,65.2
2019-05-11T14:18:49.000Z,64.9
2019-05-11T14:20:02.000Z,66.8
2019-05-11T14:21:14.000Z,66.6
2019-05-11T14:22:26.000Z,69.1
2019-05-11T14:23:38.000Z,68.7
2019-05-11T14:24:50.000Z,70.7
2019-05-11T14:26:03.000Z,70.7
2019-05-11T14:27:14.000Z,71.5
2019-05-11T14:28:27.000Z,67.7
2019-05-11T14:29:39.000Z,71.4
2019-05-11T14:30:52.474Z,71.3
2019-05-11T14:32:04.688Z,68.8
2019-05-11T14:33:16.000Z,73.1
2019-05-11T14:34:28.000Z,73
2019-05-11T14:35:41.315Z,73.3
2019-05-11T14:36:52.000Z,76.2
2019-05-11T14:38:04.000Z,75.2
2019-05-11T14:39:16.000Z,74.6
2019-05-11T14:40:29.000Z,77.7
2019-05-11T14:41:42.000Z,76.7
2019-05-11T14:42:54.000Z,77.6
2019-05-11T14:44:06.000Z,78.5
2019-05-11T14:45:17.000Z,78.9
2019-05-11T14:46:31.183Z,77.3
2019-05-11T14:47:42.000Z,77
2019-05-11T14:48:54.000Z,78.1
2019-05-11T14:50:06.000Z,79.2
2019-05-11T14:51:18.000Z,80.4
2019-05-11T14:52:31.000Z,79.4
2019-05-11T14:53:44.421Z,79.9
2019-05-11T14:54:55.000Z,79.8
2019-05-11T14:56:08.000Z,79.3
2019-05-11T14:57:20.000Z,79.8
2019-05-11T14:58:32.000Z,78
2019-05-11T14:59:45.478Z,78.3
2019-05-11T15:00:57.680Z,79
2019-05-11T15:02:08.000Z,78.8
2019-05-11T15:03:21.000Z,78.8
2019-05-11T15:04:34.300Z,79.2
2019-05-11T15:05:46.513Z,77.7
2019-05-11T15:06:57.000Z,79.3
2019-05-11T15:08:09.000Z,79.8
2019-05-11T15:09:22.000Z,78.9
2019-05-11T15:10:35.034Z,78.9
2019-05-11T15:11:46.000Z,80.5
2019-05-11T15:12:58.000Z,78.9
2019-05-11T15:14:11.998Z,80.3
2019-05-11T15:16:36.382Z,82.4
2019-05-11T15:17:48.602Z,82.2
2019-05-11T15:18:59.000Z,82
2019-05-11T15:20:12.000Z,81.6
2019-05-11T15:21:25.212Z,81.5
2019-05-11T15:22:36.000Z,81.9
2019-05-11T15:23:48.000Z,81.7
2019-05-11T15:25:01.831Z,81.9
2019-05-11T15:26:13.000Z,81.4
2019-05-11T15:27:25.000Z,82.7
2019-05-11T15:28:38.466Z,83.3
2019-05-11T15:29:49.000Z,82.6
2019-05-11T15:31:01.000Z,83.8
2019-05-11T15:32:14.000Z,82.8
2019-05-11T15:33:26.000Z,81.7
2019-05-11T15:34:38.000Z,82.6
2019-05-11T15:35:50.000Z,83.3
2019-05-11T15:37:03.089Z,83.1
2019-05-11T15:38:15.000Z,83.5
2019-05-11T15:39:27.000Z,84.3
2019-05-11T15:40:40.751Z,85.2
2019-05-11T15:41:51.000Z,85
2019-05-11T15:43:04.000Z,82.6
2019-05-11T15:44:16.000Z,85
2019-05-11T15:45:28.000Z,84.3
2019-05-11T15:46:41.568Z,83.2
2019-05-11T15:47:53.000Z,84.4
2019-05-11T15:49:04.000Z,83.4
2019-05-11T15:50:18.000Z,84.8
2019-05-11T15:51:30.395Z,82.8
2019-05-11T15:52:41.000Z,85.7
2019-05-11T15:53:53.000Z,86
2019-05-11T15:55:06.000Z,84.1
2019-05-11T15:56:18.000Z,85.8
2019-05-11T15:57:30.000Z,87
2019-05-11T15:58:43.658Z,85.7
2019-05-11T15:59:54.000Z,85.9
2019-05-11T16:01:07.000Z,85.5
2019-05-11T16:02:19.000Z,87
2019-05-11T16:03:31.000Z,86.8
2019-05-11T16:04:43.000Z,88
2019-05-11T16:05:55.000Z,87.1
2019-05-11T16:07:08.000Z,87.1
2019-05-11T16:08:20.000Z,87.4
2019-05-11T16:09:33.514Z,88.6
2019-05-11T16:10:44.000Z,88.8
2019-05-11T16:11:56.000Z,88.6
2019-05-11T16:13:09.000Z,87.2
2019-05-11T16:14:22.425Z,86.4
2019-05-11T16:15:34.000Z,87.3
2019-05-11T16:16:46.762Z,87.7
2019-05-11T16:17:57.000Z,88.3
2019-05-11T16:19:11.000Z,88.8
2019-05-11T16:20:22.000Z,89.2
2019-05-11T16:21:35.000Z,90
2019-05-11T16:22:47.793Z,90.2
2019-05-11T16:23:58.000Z,90.4
2019-05-11T16:25:11.000Z,90
2019-05-11T16:26:24.418Z,90.3
2019-05-11T16:27:35.000Z,90.8
2019-05-11T16:28:47.000Z,90
2019-05-11T16:30:01.034Z,89.9
2019-05-11T16:31:13.000Z,89.1
2019-05-11T16:32:24.000Z,89.2
2019-05-11T16:33:37.000Z,88.6
2019-05-11T16:34:48.000Z,89.1
2019-05-11T16:36:01.000Z,88.5
2019-05-11T16:37:14.292Z,89.5
2019-05-11T16:38:26.050Z,88.6
2019-05-11T16:39:38.000Z,89.6
2019-05-11T16:40:50.921Z,89.9
2019-05-11T16:42:02.000Z,89.9
2019-05-11T16:43:15.034Z,89.5
2019-05-11T16:44:27.000Z,90
2019-05-11T16:45:39.000Z,89.5
2019-05-11T16:46:50.000Z,89.6
2019-05-11T16:48:03.000Z,90
2019-05-11T16:49:16.041Z,89.4
2019-05-11T16:50:27.000Z,89.4
2019-05-11T16:51:40.000Z,88.9
2019-05-11T16:52:52.000Z,89.4
2019-05-11T16:54:05.266Z,89.4
2019-05-11T16:55:16.000Z,88.8
2019-05-11T16:56:29.702Z,89.6
2019-05-11T16:57:40.000Z,89.7
2019-05-11T16:58:54.127Z,89.9
2019-05-11T17:00:05.000Z,90
2019-05-11T17:02:30.000Z,89.4
2019-05-11T17:03:41.000Z,89.3
2019-05-11T17:04:55.176Z,89.4
2019-05-11T17:06:06.000Z,88.6
2019-05-11T17:07:19.600Z,88
2019-05-11T17:08:30.000Z,89.4
2019-05-11T17:09:44.021Z,86.8
2019-05-11T17:12:07.000Z,87.7
2019-05-11T17:13:19.000Z,86.8